Weather History for Boomvang, TX

Change the Weather History Date:

Wednesday, March 26, 2014

  Actual Average Record
Temperature  
Mean Temperature 66 °F -  
Max Temperature 68 °F - - ()
Min Temperature 64 °F - - ()
Cooling Degree Days 1    
Growing Degree Days 16 (Base 50)    
Moisture  
Dew Point 53 °F    
Average Humidity 64    
Maximum Humidity 83    
Minimum Humidity 43    
Precipitation  
Precipitation 0.00 in - - ()
Sea Level Pressure  
Sea Level Pressure 30.13 in    
Wind  
Wind Speed 24 mph (ESE)    
Max Wind Speed 32 mph    
Max Gust Speed 37 mph    
Visibility 10 miles    
Events      
T = Trace of Precipitation, MM = Missing Value Source: NWS Daily Summary

Daily Weather History Graph

Daily Weather History Graph

Search for Another Location

Airport:

Trip Planner

Search our weather history database for the weather conditions in past years. The results will help you decide how hot, cold, wet, or windy it might be!

Date:

Astronomy

Mar. 26, 2014 Rise Set
Actual Time 7:15 AM CDT 7:32 PM CDT
Civil Twilight 6:52 AM CDT 7:56 PM CDT
Nautical Twilight 6:25 AM CDT 8:23 PM CDT
Astronomical Twilight 5:57 AM CDT 8:51 PM CDT
Moon 4:02 AM CDT (3/26) 3:32 PM CDT (3/26)
Length of Visible Light 13h 03m
Length of Day
12h 17m
Waning Crescent, 21% of the Moon is Illuminated
Mar 26
Waning Crescent
Mar 30
New
Apr 7
First Quarter
Apr 15
Full
Apr 22
Last Quarter

Hourly Weather History & Observations

Time (CDT) Temp. Dew Point Humidity Pressure Visibility Wind Dir Wind Speed Gust Speed Precip Events Conditions
12:15 AM 64.4 °F 44.6 °F 49% 30.21 in 10.0 mi East 21.9 mph - N/A   Clear
12:35 AM 64.4 °F 46.4 °F 52% 30.21 in 10.0 mi East 21.9 mph - N/A   Clear
12:55 AM 64.4 °F 46.4 °F 52% 30.20 in 10.0 mi East 21.9 mph - N/A   Clear
1:15 AM 64.4 °F 46.4 °F 52% 30.20 in 10.0 mi East 20.7 mph - N/A   Clear
1:35 AM 64.4 °F 46.4 °F 52% 30.18 in 10.0 mi East 23.0 mph - N/A   Clear
1:55 AM 66.2 °F 44.6 °F 46% 30.18 in 10.0 mi East 25.3 mph - N/A   Clear
2:15 AM 66.2 °F 44.6 °F 46% 30.17 in 10.0 mi East 26.5 mph - N/A   Clear
2:35 AM 66.2 °F 42.8 °F 43% 30.17 in 10.0 mi East 25.3 mph - N/A   Clear
2:55 AM 66.2 °F 44.6 °F 46% 30.17 in 10.0 mi ESE 20.7 mph 27.6 mph N/A   Clear
3:15 AM 66.2 °F 48.2 °F 52% 30.17 in 10.0 mi ESE 20.7 mph 27.6 mph N/A   Clear
3:35 AM 66.2 °F 46.4 °F 49% 30.15 in 10.0 mi East 24.2 mph - N/A   Clear
3:55 AM 66.2 °F 46.4 °F 49% 30.15 in 10.0 mi East 24.2 mph - N/A   Clear
4:15 AM 66.2 °F 44.6 °F 46% 30.16 in 10.0 mi East 25.3 mph - N/A   Clear
4:35 AM 66.2 °F 44.6 °F 46% 30.17 in 10.0 mi East 21.9 mph - N/A   Clear
4:55 AM 66.2 °F 46.4 °F 49% 30.17 in 10.0 mi East 18.4 mph 25.3 mph N/A   Clear
5:15 AM 66.2 °F 46.4 °F 49% 30.18 in 10.0 mi East 19.6 mph - N/A   Partly Cloudy
5:35 AM 66.2 °F 46.4 °F 49% 30.19 in 10.0 mi East 21.9 mph - N/A   Partly Cloudy
5:55 AM 66.2 °F 46.4 °F 49% 30.20 in 10.0 mi East 18.4 mph - N/A   Partly Cloudy
6:15 AM 66.2 °F 46.4 °F 49% 30.22 in 10.0 mi East 16.1 mph - N/A   Partly Cloudy
6:35 AM 66.2 °F 48.2 °F 52% 30.21 in 10.0 mi ESE 17.3 mph - N/A   Partly Cloudy
6:55 AM 66.2 °F 50.0 °F 56% 30.21 in 10.0 mi ESE 18.4 mph - N/A   Partly Cloudy
7:15 AM 66.2 °F 50.0 °F 56% 30.19 in 10.0 mi ESE 21.9 mph - N/A   Partly Cloudy
7:35 AM 66.2 °F 51.8 °F 60% 30.19 in 10.0 mi ESE 24.2 mph - N/A   Clear
7:55 AM 66.2 °F 51.8 °F 60% 30.17 in 10.0 mi ESE 25.3 mph - N/A   Partly Cloudy
8:15 AM 66.2 °F 51.8 °F 60% 30.18 in 10.0 mi ESE 24.2 mph - N/A   Partly Cloudy
8:35 AM 66.2 °F 51.8 °F 60% 30.21 in 10.0 mi ESE 23.0 mph 29.9 mph N/A   Mostly Cloudy
8:55 AM 66.2 °F 51.8 °F 60% 30.23 in 9.0 mi ESE 23.0 mph - N/A   Mostly Cloudy
9:15 AM 64.4 °F 51.8 °F 64% 30.20 in 3.0 mi ESE 28.8 mph - N/A   Haze
9:35 AM 64.4 °F 53.6 °F 68% 30.18 in 2.0 mi ESE 28.8 mph - N/A   Haze
9:55 AM 64.4 °F 53.6 °F 68% 30.22 in 9.0 mi ESE 26.5 mph - N/A   Scattered Clouds
10:15 AM 66.2 °F 53.6 °F 64% 30.23 in 10.0 mi ESE 25.3 mph - N/A   Scattered Clouds
10:35 AM 64.4 °F 53.6 °F 68% 30.22 in 10.0 mi ESE 27.6 mph - N/A   Overcast
10:55 AM 66.2 °F 53.6 °F 64% 30.23 in 10.0 mi ESE 25.3 mph - N/A   Mostly Cloudy
11:15 AM 66.2 °F 51.8 °F 60% 30.21 in 10.0 mi East 25.3 mph - N/A   Partly Cloudy
11:35 AM 66.2 °F 51.8 °F 60% 30.19 in 10.0 mi East 29.9 mph - N/A   Clear
11:55 AM 66.2 °F 53.6 °F 64% 30.16 in 10.0 mi ESE 29.9 mph 36.8 mph N/A   Partly Cloudy
12:15 PM 66.2 °F 53.6 °F 64% 30.15 in 10.0 mi SE 28.8 mph 35.7 mph N/A   Clear
12:35 PM 66.2 °F 53.6 °F 64% 30.14 in 10.0 mi SE 31.1 mph - N/A   Clear
12:55 PM 66.2 °F 55.4 °F 68% 30.12 in 10.0 mi SE 27.6 mph 36.8 mph N/A   Clear
1:15 PM 66.2 °F 53.6 °F 64% 30.13 in 10.0 mi SE 29.9 mph - N/A   Partly Cloudy
1:35 PM 66.2 °F 55.4 °F 68% 30.12 in 10.0 mi SE 28.8 mph 35.7 mph N/A   Scattered Clouds
1:55 PM 66.2 °F 55.4 °F 68% 30.10 in 9.0 mi SE 32.2 mph - N/A   Scattered Clouds
2:15 PM 66.2 °F 55.4 °F 68% 30.09 in 10.0 mi SE 31.1 mph - N/A   Partly Cloudy
2:35 PM 66.2 °F 55.4 °F 68% 30.09 in 10.0 mi SE 31.1 mph - N/A   Scattered Clouds
2:55 PM 66.2 °F 55.4 °F 68% 30.10 in 10.0 mi SE 28.8 mph - N/A   Mostly Cloudy
3:15 PM 66.2 °F 55.4 °F 68% 30.07 in 10.0 mi SE 28.8 mph - N/A   Scattered Clouds
3:35 PM 66.2 °F 55.4 °F 68% 30.07 in 10.0 mi SE 31.1 mph - N/A   Mostly Cloudy
3:55 PM 66.2 °F 55.4 °F 68% 30.07 in 10.0 mi SE 28.8 mph - N/A   Overcast
4:15 PM 66.2 °F 57.2 °F 73% 30.04 in 10.0 mi SE 27.6 mph - N/A   Overcast
4:35 PM 66.2 °F 57.2 °F 73% 30.08 in 10.0 mi SE 20.7 mph 28.8 mph N/A   Overcast
4:55 PM 66.2 °F 57.2 °F 73% 30.09 in 10.0 mi SE 19.6 mph - N/A   Overcast
5:15 PM 66.2 °F 57.2 °F 73% 30.08 in 6.0 mi SE 21.9 mph - N/A   Haze
5:35 PM 66.2 °F 59.0 °F 78% 30.10 in 9.0 mi SE 17.3 mph - N/A   Overcast
5:55 PM 66.2 °F 57.2 °F 73% 30.10 in 6.0 mi SE 20.7 mph - N/A   Haze
6:15 PM 66.2 °F 59.0 °F 78% 30.09 in 9.0 mi SE 21.9 mph - N/A   Mostly Cloudy
6:35 PM 68.0 °F 57.2 °F 68% 30.09 in 10.0 mi SE 21.9 mph - N/A   Overcast
6:55 PM 66.2 °F 59.0 °F 78% 30.07 in 9.0 mi ESE 23.0 mph - N/A   Overcast
7:15 PM 66.2 °F 59.0 °F 78% 30.07 in 4.0 mi ESE 24.2 mph - N/A   Haze
7:35 PM 66.2 °F 59.0 °F 78% 30.07 in 9.0 mi ESE 23.0 mph - N/A   Overcast
7:55 PM 66.2 °F 59.0 °F 78% 30.07 in 10.0 mi SE 25.3 mph - N/A   Unknown
8:15 PM 66.2 °F 60.8 °F 83% 30.06 in 10.0 mi SE 24.2 mph - N/A   Unknown
8:35 PM 66.2 °F 59.0 °F 78% 30.06 in 10.0 mi SE 26.5 mph - N/A   Mostly Cloudy
8:55 PM 66.2 °F 59.0 °F 78% 30.05 in 10.0 mi SE 27.6 mph - N/A   Overcast
9:15 PM 68.0 °F 60.8 °F 78% 30.05 in 10.0 mi SE 25.3 mph - N/A   Overcast
9:35 PM 68.0 °F 59.0 °F 73% 30.06 in 10.0 mi SE 27.6 mph - N/A   Overcast
9:55 PM 68.0 °F 59.0 °F 73% 30.06 in 10.0 mi SE 26.5 mph - N/A   Unknown
10:15 PM 68.0 °F 59.0 °F 73% 30.06 in 10.0 mi SE 26.5 mph - N/A   Unknown
10:35 PM 68.0 °F 59.0 °F 73% 30.05 in 10.0 mi SE 27.6 mph - N/A   Overcast
10:55 PM 68.0 °F 60.8 °F 78% 30.04 in 10.0 mi SE 28.8 mph - N/A   Mostly Cloudy
11:15 PM 68.0 °F 60.8 °F 78% 30.03 in 10.0 mi SE 29.9 mph - N/A   Mostly Cloudy
11:35 PM 68.0 °F 62.6 °F 83% 30.03 in 10.0 mi SE 28.8 mph - N/A   Overcast
11:55 PM 68.0 °F 60.8 °F 78% 30.03 in 10.0 mi SE 24.2 mph - N/A   Mostly Cloudy